Time;durP1;ratioP1;P1;durP2;ratioP2;P2;SDS_P1;SDS_P2;PMS_P1;PMS_P2;Temp;Humidity;BMP_temperature;BMP_pressure;BME280_temperature;BME280_humidity;BME280_pressure;Samples;Min_cycle;Max_cycle;Signal;HPM_P1;HPM_P2
2022/05/27 00:01:12;;;;;;;6.20;2.30;;;15.00;99.90;;;;;;5052505;28;20233;-64
2022/05/27 00:03:42;;;;;;;6.80;2.53;;;15.00;99.90;;;;;;5052122;28;20895;-63
2022/05/27 00:06:11;;;;;;;7.60;2.50;;;15.00;99.90;;;;;;5045559;28;20212;-64
2022/05/27 00:08:42;;;;;;;11.00;3.03;;;15.00;99.90;;;;;;5082461;28;20193;-63
2022/05/27 00:11:13;;;;;;;7.90;2.77;;;15.00;99.90;;;;;;5051131;28;20284;-63
2022/05/27 00:13:42;;;;;;;6.10;2.53;;;15.00;99.90;;;;;;5050722;28;20232;-63
2022/05/27 00:16:11;;;;;;;12.10;2.67;;;15.00;99.90;;;;;;5042534;28;20193;-64
2022/05/27 00:18:40;;;;;;;8.63;2.73;;;15.00;99.90;;;;;;5051151;28;20209;-63
2022/05/27 00:21:10;;;;;;;9.00;2.73;;;15.00;99.90;;;;;;5050140;28;20197;-63
2022/05/27 00:23:39;;;;;;;6.00;2.57;;;15.00;99.90;;;;;;5044995;28;20221;-63
2022/05/27 00:26:08;;;;;;;9.43;2.87;;;15.00;99.90;;;;;;5049527;28;20225;-62
2022/05/27 00:28:36;;;;;;;6.60;2.60;;;15.00;99.90;;;;;;5050725;28;20518;-63
2022/05/27 00:31:05;;;;;;;8.60;2.70;;;15.00;99.90;;;;;;5052095;28;20235;-63
2022/05/27 00:33:35;;;;;;;6.50;2.93;;;15.00;99.90;;;;;;5048144;28;20189;-63
2022/05/27 00:36:06;;;;;;;12.07;2.70;;;15.00;99.90;;;;;;5051233;28;20233;-64
2022/05/27 00:38:37;;;;;;;10.23;3.03;;;15.00;99.90;;;;;;5049658;28;20666;-63
2022/05/27 00:41:06;;;;;;;11.77;3.10;;;15.00;99.90;;;;;;5050682;28;20204;-63
2022/05/27 00:43:34;;;;;;;13.27;3.43;;;15.00;99.90;;;;;;5050025;28;20201;-64
2022/05/27 00:46:07;;;;;;;10.07;3.03;;;14.90;99.90;;;;;;5042628;28;20280;-63
2022/05/27 00:48:38;;;;;;;11.93;3.17;;;15.00;99.90;;;;;;5051797;28;20200;-63
2022/05/27 00:51:16;;;;;;;7.80;2.73;;;15.00;99.90;;;;;;5052323;28;20287;-63
2022/05/27 00:53:51;;;;;;;11.60;3.10;;;15.00;99.90;;;;;;5048130;28;20323;-63
2022/05/27 00:56:21;;;;;;;9.03;2.93;;;15.00;99.90;;;;;;5044060;28;20201;-64
2022/05/27 00:58:56;;;;;;;8.33;2.80;;;15.00;99.90;;;;;;5051599;28;20215;-64
2022/05/27 01:01:27;;;;;;;8.13;2.90;;;15.00;99.90;;;;;;5048631;28;20204;-64
2022/05/27 01:03:57;;;;;;;5.67;2.73;;;15.00;99.90;;;;;;5051717;28;20250;-64
2022/05/27 01:06:26;;;;;;;13.30;3.27;;;15.00;99.90;;;;;;5050795;28;20204;-64
2022/05/27 01:08:57;;;;;;;7.57;2.70;;;15.00;99.90;;;;;;5049337;28;20212;-64
2022/05/27 01:11:39;;;;;;;14.70;3.33;;;15.00;99.90;;;;;;5046991;28;20216;-63
2022/05/27 01:14:20;;;;;;;16.00;3.40;;;15.00;99.90;;;;;;5044567;28;20191;-64
2022/05/27 01:16:58;;;;;;;13.53;3.20;;;15.00;99.90;;;;;;5050134;28;20281;-65
2022/05/27 01:20:20;;;;;;;8.10;2.93;;;15.00;99.90;;;;;;5051431;28;20217;-64
2022/05/27 01:23:30;;;;;;;14.50;3.30;;;15.00;99.90;;;;;;5048699;28;20200;-64
2022/05/27 01:26:37;;;;;;;9.53;3.40;;;15.00;99.90;;;;;;5044456;28;20662;-64
2022/05/27 01:29:28;;;;;;;10.80;2.93;;;15.00;99.90;;;;;;5038003;28;20201;-64
2022/05/27 01:32:02;;;;;;;7.97;2.90;;;15.00;99.90;;;;;;5046470;28;20548;-64
2022/05/27 01:34:41;;;;;;;10.27;3.50;;;15.00;99.90;;;;;;5049224;28;20200;-64
2022/05/27 01:37:17;;;;;;;10.43;2.90;;;14.90;99.90;;;;;;5052029;28;20640;-64
2022/05/27 01:39:49;;;;;;;10.33;3.23;;;14.90;99.90;;;;;;5050654;28;20220;-63
2022/05/27 01:42:23;;;;;;;17.97;3.67;;;14.90;99.90;;;;;;5048385;28;20461;-62
2022/05/27 01:44:57;;;;;;;10.47;3.07;;;14.90;99.90;;;;;;5046206;28;20192;-64
2022/05/27 01:47:33;;;;;;;11.50;3.07;;;14.90;99.90;;;;;;5049275;28;20602;-63
2022/05/27 01:50:08;;;;;;;10.07;3.23;;;14.90;99.90;;;;;;5050217;28;20240;-64
2022/05/27 01:52:43;;;;;;;11.70;3.43;;;14.90;99.90;;;;;;5079606;28;20181;-64
2022/05/27 01:55:16;;;;;;;10.27;3.70;;;14.90;99.90;;;;;;5041779;28;20284;-64
2022/05/27 01:57:49;;;;;;;10.33;3.03;;;14.90;99.90;;;;;;5048400;28;20204;-64
2022/05/27 02:00:22;;;;;;;14.40;3.53;;;14.90;99.90;;;;;;5051009;28;20235;-64
2022/05/27 02:02:56;;;;;;;8.77;3.50;;;14.90;99.90;;;;;;5049904;28;20287;-63
2022/05/27 02:05:29;;;;;;;14.10;3.33;;;14.90;99.90;;;;;;5045988;28;20251;-64
2022/05/27 02:08:01;;;;;;;11.53;4.03;;;14.90;99.90;;;;;;5048834;28;20197;-64
2022/05/27 02:10:34;;;;;;;12.60;3.87;;;14.90;99.90;;;;;;5045971;28;20227;-64
2022/05/27 02:13:08;;;;;;;12.10;3.57;;;14.90;99.90;;;;;;5049168;28;20283;-64
2022/05/27 02:15:42;;;;;;;9.87;3.37;;;15.00;99.90;;;;;;5046120;28;20198;-64
2022/05/27 02:18:18;;;;;;;12.50;3.90;;;14.90;99.90;;;;;;5048896;28;20275;-64
2022/05/27 02:20:52;;;;;;;10.13;3.60;;;14.90;99.90;;;;;;5051138;28;20729;-65
2022/05/27 02:23:25;;;;;;;13.80;3.83;;;14.90;99.90;;;;;;5052989;28;20191;-64
2022/05/27 02:25:56;;;;;;;9.97;3.60;;;14.90;99.90;;;;;;5053253;28;20219;-63
2022/05/27 02:28:28;;;;;;;10.03;3.70;;;14.90;99.90;;;;;;5053172;28;20193;-63
2022/05/27 02:31:02;;;;;;;12.43;3.93;;;14.90;99.90;;;;;;5053044;28;20189;-64
2022/05/27 02:36:36;;;;;;;12.07;3.50;;;14.90;99.90;;;;;;5046436;28;20257;-64
2022/05/27 02:39:06;;;;;;;11.77;3.40;;;14.90;99.90;;;;;;5051443;28;20218;-64
2022/05/27 02:41:40;;;;;;;11.43;3.67;;;14.90;99.90;;;;;;5047068;28;20196;-64
2022/05/27 02:44:22;;;;;;;18.30;4.10;;;14.90;99.90;;;;;;5050321;28;20313;-63
2022/05/27 02:46:55;;;;;;;11.30;4.13;;;14.90;99.90;;;;;;5049817;28;20197;-63
2022/05/27 02:49:30;;;;;;;17.87;4.53;;;14.90;99.90;;;;;;5051411;28;20592;-64
2022/05/27 02:52:10;;;;;;;14.03;3.90;;;14.90;99.90;;;;;;5051292;28;20295;-64
2022/05/27 02:54:45;;;;;;;17.93;4.10;;;14.90;99.90;;;;;;5056737;28;20194;-64
2022/05/27 02:57:19;;;;;;;14.67;3.97;;;14.90;99.90;;;;;;5050621;28;20201;-64
2022/05/27 02:59:48;;;;;;;13.47;3.83;;;14.90;99.90;;;;;;5047661;28;20296;-63
2022/05/27 03:02:17;;;;;;;11.80;4.17;;;14.90;99.90;;;;;;5053359;28;20637;-63
2022/05/27 03:04:50;;;;;;;13.50;4.63;;;14.90;99.90;;;;;;5050699;28;20212;-63
2022/05/27 03:07:37;;;;;;;25.10;4.43;;;14.90;99.90;;;;;;5053414;28;20549;-64
2022/05/27 03:10:26;;;;;;;9.07;3.60;;;14.90;99.90;;;;;;5068126;28;20200;-64
2022/05/27 03:13:18;;;;;;;17.63;4.50;;;14.90;99.90;;;;;;5047930;28;20231;-64
2022/05/27 03:15:58;;;;;;;15.77;4.30;;;14.80;99.90;;;;;;5050123;28;20204;-64
2022/05/27 03:18:42;;;;;;;16.03;4.30;;;14.80;99.90;;;;;;5047533;28;20207;-64
2022/05/27 03:21:19;;;;;;;16.33;4.27;;;14.80;99.90;;;;;;5049698;28;20219;-63
2022/05/27 03:24:02;;;;;;;19.43;4.73;;;14.80;99.90;;;;;;5051778;28;20200;-64
2022/05/27 03:26:40;;;;;;;15.00;4.87;;;14.80;99.90;;;;;;5052046;28;20189;-64
2022/05/27 03:29:20;;;;;;;17.40;5.17;;;14.80;99.90;;;;;;5051183;28;20196;-64
2022/05/27 03:31:54;;;;;;;15.57;5.17;;;14.80;99.90;;;;;;5041116;28;20209;-63
2022/05/27 03:34:29;;;;;;;12.27;4.20;;;14.80;99.90;;;;;;5049069;28;20223;-64
2022/05/27 03:37:03;;;;;;;14.37;4.37;;;14.80;99.90;;;;;;5049830;28;20359;-64
2022/05/27 03:39:41;;;;;;;15.70;4.60;;;14.80;99.90;;;;;;5049213;28;20254;-64
2022/05/27 03:42:10;;;;;;;13.10;4.10;;;14.80;99.90;;;;;;5050234;28;20194;-64
2022/05/27 03:44:49;;;;;;;15.13;5.27;;;14.80;99.90;;;;;;5063850;28;20193;-64
2022/05/27 03:47:18;;;;;;;21.20;5.13;;;14.80;99.90;;;;;;5047291;28;20197;-64
2022/05/27 03:49:47;;;;;;;14.60;4.33;;;14.80;99.90;;;;;;5049593;28;20224;-64
2022/05/27 03:52:20;;;;;;;21.27;5.97;;;14.80;99.90;;;;;;5049252;28;20237;-64
2022/05/27 03:54:50;;;;;;;19.03;4.73;;;14.80;99.90;;;;;;5050192;28;20219;-64
2022/05/27 03:57:18;;;;;;;21.33;5.70;;;14.80;99.90;;;;;;5044631;28;20273;-63
2022/05/27 03:59:46;;;;;;;16.90;4.97;;;14.80;99.90;;;;;;5051212;28;20212;-64
2022/05/27 04:02:15;;;;;;;18.77;5.43;;;14.80;99.90;;;;;;5050357;28;20284;-63
2022/05/27 04:04:44;;;;;;;16.63;5.80;;;14.80;99.90;;;;;;5053456;28;20256;-64
2022/05/27 04:07:13;;;;;;;19.70;5.60;;;14.80;99.90;;;;;;5050835;28;20184;-63
2022/05/27 04:09:43;;;;;;;15.50;5.67;;;14.70;99.90;;;;;;5050365;28;20199;-64
2022/05/27 04:12:13;;;;;;;18.17;6.50;;;14.70;99.90;;;;;;5047912;28;20220;-63
2022/05/27 04:14:41;;;;;;;20.73;6.47;;;14.60;99.90;;;;;;5044631;28;20208;-63
2022/05/27 04:19:55;;;;;;;23.97;7.00;;;14.50;99.90;;;;;;5047713;28;20216;-64
2022/05/27 04:22:23;;;;;;;24.33;7.83;;;14.50;99.90;;;;;;5055247;28;20204;-63
2022/05/27 04:24:54;;;;;;;18.70;7.27;;;14.40;99.90;;;;;;5040437;28;20689;-63
2022/05/27 04:27:23;;;;;;;25.87;8.23;;;14.40;99.90;;;;;;5053307;28;20239;-63
2022/05/27 04:29:53;;;;;;;31.03;8.27;;;14.40;99.90;;;;;;5049897;28;20641;-63
2022/05/27 04:32:22;;;;;;;26.37;8.33;;;14.30;99.90;;;;;;5049946;28;20205;-63
2022/05/27 04:34:51;;;;;;;25.30;8.13;;;14.30;99.90;;;;;;5045233;28;20552;-63
2022/05/27 04:37:21;;;;;;;25.90;8.27;;;14.30;99.90;;;;;;5051412;28;20199;-63
2022/05/27 04:39:50;;;;;;;20.53;8.43;;;14.30;99.90;;;;;;5041579;28;20276;-63
2022/05/27 04:42:19;;;;;;;23.60;9.10;;;14.30;99.90;;;;;;5052786;28;20207;-63
2022/05/27 04:44:48;;;;;;;23.30;8.87;;;14.30;99.90;;;;;;5047542;28;20196;-63
2022/05/27 04:47:16;;;;;;;27.93;9.63;;;14.30;99.90;;;;;;5041465;28;20275;-62
2022/05/27 04:49:53;;;;;;;24.83;8.77;;;14.30;99.90;;;;;;5046384;28;20227;-63
2022/05/27 04:52:25;;;;;;;34.80;11.00;;;14.30;99.90;;;;;;5047898;28;20243;-63
2022/05/27 04:54:55;;;;;;;25.07;9.50;;;14.30;99.90;;;;;;5083824;28;20198;-62
2022/05/27 04:57:27;;;;;;;24.83;10.37;;;14.20;99.90;;;;;;5039028;28;20236;-62
2022/05/27 04:59:56;;;;;;;25.27;10.37;;;14.30;99.90;;;;;;5052293;28;20283;-62
2022/05/27 05:02:25;;;;;;;23.60;10.70;;;14.30;99.90;;;;;;5049710;28;20217;-63
2022/05/27 05:04:54;;;;;;;27.70;10.83;;;14.30;99.90;;;;;;5046772;28;20201;-63
2022/05/27 05:07:24;;;;;;;26.37;10.50;;;14.30;99.90;;;;;;5052157;28;20216;-63
2022/05/27 05:09:53;;;;;;;25.57;11.60;;;14.20;99.90;;;;;;5081824;28;20228;-63
2022/05/27 05:12:22;;;;;;;29.57;12.37;;;14.30;99.90;;;;;;5050667;28;20201;-64
2022/05/27 05:14:53;;;;;;;33.77;12.23;;;14.30;99.90;;;;;;5049798;28;20682;-63
2022/05/27 05:17:23;;;;;;;27.00;12.53;;;14.20;99.90;;;;;;5048866;28;20229;-63
2022/05/27 05:19:53;;;;;;;33.93;14.70;;;14.20;99.90;;;;;;5048754;28;20549;-62
2022/05/27 05:22:23;;;;;;;33.50;14.43;;;14.20;99.90;;;;;;5047461;28;20627;-63
2022/05/27 05:24:53;;;;;;;30.80;14.27;;;14.20;99.90;;;;;;5046983;28;20235;-62
2022/05/27 05:27:23;;;;;;;29.73;14.10;;;14.30;99.90;;;;;;5082904;28;20227;-63
2022/05/27 05:29:54;;;;;;;33.20;15.80;;;14.30;99.90;;;;;;5052536;28;20185;-62
2022/05/27 05:32:23;;;;;;;40.20;15.63;;;14.30;99.90;;;;;;5049230;28;20192;-63
2022/05/27 05:34:53;;;;;;;39.53;14.97;;;14.30;99.90;;;;;;5045114;28;20203;-63
2022/05/27 05:37:23;;;;;;;42.37;16.33;;;14.30;99.90;;;;;;5052241;28;20272;-62
2022/05/27 05:39:52;;;;;;;39.30;16.93;;;14.40;99.90;;;;;;5049502;28;20262;-62
2022/05/27 05:42:22;;;;;;;38.57;17.83;;;14.40;99.90;;;;;;5045584;28;20215;-63
2022/05/27 05:44:50;;;;;;;35.27;16.70;;;14.50;99.90;;;;;;5041358;28;20200;-62
2022/05/27 05:47:21;;;;;;;37.90;17.60;;;14.50;99.90;;;;;;5051313;28;20198;-63
2022/05/27 05:49:49;;;;;;;36.23;17.13;;;14.60;99.90;;;;;;5049468;28;20216;-63
2022/05/27 05:52:18;;;;;;;34.70;16.73;;;14.60;99.90;;;;;;5051125;28;20196;-63
2022/05/27 05:54:46;;;;;;;38.70;17.43;;;14.70;99.90;;;;;;5050552;28;20197;-62
2022/05/27 05:57:15;;;;;;;30.93;15.63;;;14.80;99.90;;;;;;5050606;28;20213;-63
2022/05/27 05:59:45;;;;;;;37.87;15.20;;;14.90;99.90;;;;;;5038711;28;20233;-63
2022/05/27 06:02:14;;;;;;;36.53;15.20;;;15.00;99.90;;;;;;5051511;28;20217;-63
2022/05/27 06:04:44;;;;;;;33.93;15.07;;;15.10;99.90;;;;;;5045046;28;20189;-63
2022/05/27 06:07:21;;;;;;;35.63;14.90;;;15.10;99.90;;;;;;5051153;28;20201;-63
2022/05/27 06:09:50;;;;;;;32.63;13.30;;;15.00;99.90;;;;;;5040143;28;20190;-63
2022/05/27 06:12:22;;;;;;;28.13;13.63;;;15.00;99.90;;;;;;5048717;28;20637;-63
2022/05/27 06:14:52;;;;;;;27.80;12.07;;;15.10;99.90;;;;;;5050148;28;20232;-63
2022/05/27 06:17:24;;;;;;;26.20;12.37;;;15.00;99.90;;;;;;5022625;28;20225;-64
2022/05/27 06:19:54;;;;;;;30.23;12.03;;;15.10;99.90;;;;;;5045669;28;20284;-64
2022/05/27 06:22:23;;;;;;;22.00;10.00;;;15.10;99.90;;;;;;5051022;28;20708;-63
2022/05/27 06:24:53;;;;;;;27.57;9.63;;;15.20;99.90;;;;;;5044035;28;20656;-65
2022/05/27 06:27:23;;;;;;;22.73;9.50;;;15.20;99.90;;;;;;5051068;28;20562;-63
2022/05/27 06:35:24;;;;;;;20.07;8.30;;;15.40;99.90;;;;;;5046103;28;20236;-64
2022/05/27 06:37:52;;;;;;;19.67;7.27;;;15.50;99.90;;;;;;5049581;28;20226;-65
2022/05/27 06:40:21;;;;;;;18.73;6.97;;;15.60;99.90;;;;;;5048013;28;20595;-63
2022/05/27 06:42:49;;;;;;;14.27;6.17;;;15.70;99.90;;;;;;5051437;28;20213;-64
2022/05/27 06:45:18;;;;;;;17.40;6.30;;;15.70;99.90;;;;;;5047096;28;20206;-64
2022/05/27 06:47:46;;;;;;;13.80;5.50;;;15.70;99.90;;;;;;5048418;28;20229;-64
2022/05/27 06:50:15;;;;;;;12.30;5.07;;;15.70;99.90;;;;;;5048445;28;20788;-64
2022/05/27 06:52:45;;;;;;;11.13;4.60;;;15.60;99.90;;;;;;5043159;28;20221;-64
2022/05/27 06:55:15;;;;;;;9.60;4.33;;;15.50;99.90;;;;;;5047086;28;20213;-65
2022/05/27 06:57:43;;;;;;;4.53;3.73;;;15.50;99.90;;;;;;5039697;28;20206;-64
2022/05/27 07:00:13;;;;;;;12.13;3.93;;;15.60;99.90;;;;;;5046721;28;20217;-64
2022/05/27 07:02:42;;;;;;;8.87;3.73;;;15.70;99.90;;;;;;5050927;28;20209;-64
2022/05/27 07:05:10;;;;;;;8.80;3.40;;;15.90;99.90;;;;;;5046993;28;20202;-65
2022/05/27 07:07:39;;;;;;;5.43;3.27;;;16.10;99.90;;;;;;5052224;28;20192;-63
2022/05/27 07:10:09;;;;;;;9.83;3.47;;;16.40;99.90;;;;;;5049539;28;20198;-63
2022/05/27 07:12:39;;;;;;;9.53;3.33;;;16.50;99.90;;;;;;5050219;28;20204;-64
2022/05/27 07:15:09;;;;;;;8.10;2.93;;;16.60;99.90;;;;;;5051373;28;20192;-64
2022/05/27 07:17:37;;;;;;;8.30;3.87;;;16.80;99.90;;;;;;5051069;28;20272;-64
2022/05/27 07:20:06;;;;;;;7.77;3.90;;;17.00;99.90;;;;;;5053127;28;20206;-64
2022/05/27 07:22:35;;;;;;;5.53;2.60;;;17.10;99.90;;;;;;5052609;28;20207;-65
2022/05/27 07:25:04;;;;;;;4.70;2.30;;;17.10;99.90;;;;;;5050364;28;20198;-64
2022/05/27 07:27:37;;;;;;;5.93;2.50;;;17.20;99.90;;;;;;5054437;28;20545;-64
2022/05/27 07:30:06;;;;;;;4.37;2.43;;;17.30;99.90;;;;;;5052558;28;20200;-64
2022/05/27 07:32:35;;;;;;;3.13;2.50;;;17.50;99.90;;;;;;5044942;28;21118;-65
2022/05/27 07:35:05;;;;;;;3.20;2.10;;;17.60;99.90;;;;;;5051545;28;20225;-64
2022/05/27 07:37:33;;;;;;;3.03;1.80;;;17.80;99.90;;;;;;5044444;28;20699;-64
2022/05/27 07:40:02;;;;;;;4.73;2.30;;;17.90;99.90;;;;;;5045601;28;20272;-65
2022/05/27 07:42:30;;;;;;;6.33;1.80;;;18.20;99.90;;;;;;5049642;28;20596;-64
2022/05/27 07:45:00;;;;;;;3.57;1.70;;;18.40;99.90;;;;;;5050689;28;20188;-64
2022/05/27 07:47:29;;;;;;;5.43;2.00;;;18.40;99.90;;;;;;5082846;28;20197;-62
2022/05/27 07:49:57;;;;;;;2.27;2.07;;;18.20;99.90;;;;;;5048631;28;20220;-62
2022/05/27 07:52:26;;;;;;;5.40;1.90;;;18.10;99.90;;;;;;5049029;28;20201;-62
2022/05/27 07:54:55;;;;;;;2.53;1.80;;;18.00;99.90;;;;;;5051002;28;20204;-61
2022/05/27 07:57:25;;;;;;;3.97;2.00;;;18.00;99.90;;;;;;5053029;28;20229;-62
2022/05/27 08:00:01;;;;;;;2.90;1.97;;;18.10;99.90;;;;;;5051553;28;20199;-61
2022/05/27 08:02:30;;;;;;;4.33;1.87;;;18.30;99.90;;;;;;5053191;28;20228;-61
2022/05/27 08:04:58;;;;;;;3.03;1.80;;;18.50;99.90;;;;;;5051190;28;20204;-63
2022/05/27 08:07:28;;;;;;;1.60;1.47;;;18.50;99.90;;;;;;5067102;28;20196;-61
2022/05/27 08:09:57;;;;;;;2.33;1.93;;;18.50;99.90;;;;;;5053261;28;20204;-61
2022/05/27 08:12:25;;;;;;;2.93;1.57;;;18.50;99.90;;;;;;5053125;28;20193;-62
2022/05/27 08:14:54;;;;;;;6.00;2.10;;;18.70;99.90;;;;;;5048334;28;20209;-61
2022/05/27 08:17:25;;;;;;;4.33;2.00;;;18.70;99.90;;;;;;5050872;28;20193;-61
2022/05/27 08:19:53;;;;;;;3.67;2.03;;;18.50;99.90;;;;;;5046243;28;20228;-61
2022/05/27 08:22:22;;;;;;;3.20;2.03;;;18.20;99.90;;;;;;5052545;28;20739;-61
2022/05/27 08:24:50;;;;;;;5.47;2.13;;;18.10;99.90;;;;;;5051552;28;20197;-61
2022/05/27 08:27:19;;;;;;;2.03;1.70;;;18.40;99.90;;;;;;5050288;28;20266;-61
2022/05/27 08:29:48;;;;;;;3.60;2.20;;;18.90;99.90;;;;;;5035877;28;20202;-61
2022/05/27 08:32:17;;;;;;;11.77;2.10;;;19.00;99.90;;;;;;5042141;28;20656;-61
2022/05/27 08:40:32;;;;;;;3.43;1.90;;;19.60;99.90;;;;;;5045835;28;20204;-64
2022/05/27 08:43:10;;;;;;;3.43;2.17;;;19.70;99.90;;;;;;5042905;28;21159;-63
2022/05/27 08:45:45;;;;;;;3.63;1.93;;;19.50;99.90;;;;;;5048894;28;20216;-64
2022/05/27 08:48:14;;;;;;;2.23;1.70;;;19.70;99.90;;;;;;5048714;28;20200;-64
2022/05/27 08:50:50;;;;;;;2.37;1.70;;;19.90;99.90;;;;;;5050206;28;20210;-64
2022/05/27 08:53:29;;;;;;;2.23;1.77;;;19.70;99.90;;;;;;5046434;28;20231;-63
2022/05/27 09:01:42;;;;;;;4.10;1.80;;;19.70;99.90;;;;;;5044377;28;20197;-65
2022/05/27 09:04:21;;;;;;;3.90;2.10;;;19.50;99.90;;;;;;5041903;28;20274;-64
2022/05/27 09:06:55;;;;;;;2.40;1.67;;;19.30;99.90;;;;;;5048943;28;20220;-64
2022/05/27 09:09:27;;;;;;;7.60;1.77;;;19.30;99.90;;;;;;5053016;28;20282;-64
2022/05/27 09:12:14;;;;;;;5.17;1.87;;;19.60;99.90;;;;;;5043952;28;20285;-61
2022/05/27 09:14:51;;;;;;;2.40;1.63;;;20.10;99.90;;;;;;5044935;28;20200;-61
2022/05/27 09:17:28;;;;;;;2.47;1.47;;;20.40;99.90;;;;;;5041222;28;20214;-62
2022/05/27 09:20:02;;;;;;;3.43;1.70;;;20.80;99.90;;;;;;5047220;28;20198;-61
2022/05/27 09:22:43;;;;;;;4.00;2.10;;;20.80;99.90;;;;;;5042979;28;20202;-62
2022/05/27 09:25:21;;;;;;;5.97;1.67;;;20.70;99.90;;;;;;5049485;28;20205;-62
2022/05/27 09:28:00;;;;;;;1.63;1.53;;;20.50;99.90;;;;;;5051446;28;20200;-63
2022/05/27 09:30:31;;;;;;;2.07;1.87;;;20.00;99.90;;;;;;5050740;28;20296;-64
2022/05/27 09:33:03;;;;;;;4.70;1.70;;;19.70;99.90;;;;;;5043939;28;20205;-63
2022/05/27 09:35:36;;;;;;;4.83;1.90;;;20.20;99.90;;;;;;5044593;28;20228;-61
2022/05/27 09:38:18;;;;;;;5.07;2.17;;;21.00;99.90;;;;;;5049195;28;20205;-61
2022/05/27 09:40:52;;;;;;;3.03;2.33;;;20.60;99.90;;;;;;5040455;28;20339;-61
2022/05/27 09:43:30;;;;;;;3.07;2.10;;;20.30;99.90;;;;;;5044630;28;20205;-61
2022/05/27 09:46:01;;;;;;;5.27;2.57;;;19.90;99.90;;;;;;5045439;28;20242;-62
2022/05/27 09:48:30;;;;;;;5.37;2.10;;;20.20;99.90;;;;;;5046458;28;20609;-61
2022/05/27 09:51:01;;;;;;;5.77;2.30;;;20.90;99.90;;;;;;5045519;28;20581;-61
2022/05/27 09:53:34;;;;;;;5.70;2.00;;;21.70;99.90;;;;;;5046758;28;20993;-61
2022/05/27 09:56:05;;;;;;;3.63;1.90;;;22.10;99.90;;;;;;5048425;28;20200;-61
2022/05/27 09:58:36;;;;;;;8.40;2.20;;;22.40;99.90;;;;;;5047908;28;20192;-61
2022/05/27 10:01:21;;;;;;;3.70;2.07;;;22.50;99.90;;;;;;5046272;28;20741;-61
2022/05/27 10:04:00;;;;;;;6.97;2.23;;;22.10;99.90;;;;;;5043946;28;20931;-61
2022/05/27 10:06:32;;;;;;;5.90;1.80;;;22.00;99.90;;;;;;5063818;28;20181;-61
2022/05/27 10:09:06;;;;;;;6.60;2.10;;;22.60;99.90;;;;;;5048096;28;20204;-61
2022/05/27 10:11:35;;;;;;;2.93;1.87;;;22.60;99.90;;;;;;5045718;28;20189;-61
2022/05/27 10:14:22;;;;;;;3.57;2.10;;;22.70;99.90;;;;;;5062219;28;20192;-61
2022/05/27 10:17:07;;;;;;;3.30;2.10;;;22.30;99.90;;;;;;5049185;28;20351;-60
2022/05/27 10:19:44;;;;;;;3.67;2.10;;;21.60;99.90;;;;;;5049553;28;20698;-61
2022/05/27 10:22:23;;;;;;;3.07;2.20;;;21.50;99.90;;;;;;5049589;28;20562;-62
2022/05/27 10:25:00;;;;;;;6.00;2.10;;;21.10;99.90;;;;;;5075115;28;20263;-64
2022/05/27 10:27:35;;;;;;;6.53;2.40;;;21.30;99.90;;;;;;5043922;28;20198;-61
2022/05/27 10:30:09;;;;;;;4.43;1.80;;;22.00;99.90;;;;;;5050687;28;20309;-61
2022/05/27 10:32:41;;;;;;;8.53;2.30;;;22.20;99.90;;;;;;5049067;28;20198;-61
2022/05/27 10:35:33;;;;;;;6.80;2.43;;;22.10;99.90;;;;;;5075471;28;20226;-61
2022/05/27 10:38:15;;;;;;;4.03;2.03;;;22.70;99.90;;;;;;5049429;28;20223;-61
2022/05/27 10:40:52;;;;;;;7.67;2.63;;;23.10;99.90;;;;;;5048014;28;20199;-62
2022/05/27 10:43:33;;;;;;;7.27;2.20;;;22.30;99.90;;;;;;5051463;28;20225;-61
2022/05/27 10:46:05;;;;;;;7.90;2.70;;;21.20;99.90;;;;;;5049128;28;20205;-61
2022/05/27 10:49:13;;;;;;;9.23;2.40;;;21.30;99.90;;;;;;5047173;28;20205;-62
2022/05/27 10:51:55;;;;;;;4.43;2.10;;;22.20;99.90;;;;;;5044111;28;20686;-60
2022/05/27 10:54:47;;;;;;;5.17;1.93;;;23.30;99.90;;;;;;5076979;28;20197;-63
2022/05/27 11:03:25;;;;;;;6.03;2.23;;;22.10;99.90;;;;;;5082178;28;20209;-63
2022/05/27 11:06:19;;;;;;;8.63;2.43;;;22.30;99.90;;;;;;5051734;28;20659;-62
2022/05/27 11:09:04;;;;;;;4.83;1.70;;;22.80;99.90;;;;;;5051349;28;20250;-61
2022/05/27 11:11:42;;;;;;;3.70;2.37;;;23.10;99.90;;;;;;5050658;28;20871;-61
2022/05/27 11:17:22;;;;;;;7.43;2.50;;;23.10;99.90;;;;;;5047685;28;20225;-61
2022/05/27 11:20:12;;;;;;;3.63;1.73;;;23.10;99.90;;;;;;5053971;28;20203;-61
2022/05/27 11:22:53;;;;;;;11.87;3.20;;;23.20;99.90;;;;;;5050171;28;20284;-61
2022/05/27 11:25:31;;;;;;;15.50;4.20;;;23.40;99.90;;;;;;5040285;28;20252;-60
2022/05/27 11:28:27;;;;;;;15.60;4.10;;;23.00;99.90;;;;;;5048676;28;20196;-63
2022/05/27 11:31:12;;;;;;;7.23;3.50;;;21.90;99.90;;;;;;5045624;28;20225;-64
2022/05/27 11:33:51;;;;;;;9.57;3.70;;;21.70;99.90;;;;;;5044297;28;20205;-63
2022/05/27 11:36:50;;;;;;;8.23;3.57;;;21.90;99.90;;;;;;5050213;28;20265;-63
2022/05/27 11:39:47;;;;;;;9.30;3.53;;;22.40;99.90;;;;;;5043976;28;20207;-61
2022/05/27 11:42:30;;;;;;;7.73;3.00;;;22.70;99.90;;;;;;5064951;28;20684;-61
2022/05/27 11:45:08;;;;;;;9.73;3.43;;;22.90;99.90;;;;;;5052673;28;20260;-61
2022/05/27 11:48:02;;;;;;;8.13;3.50;;;22.70;99.90;;;;;;5045089;28;20203;-61
2022/05/27 11:51:09;;;;;;;10.90;3.70;;;22.40;99.90;;;;;;5052464;28;20213;-61
2022/05/27 11:53:58;;;;;;;5.10;3.43;;;22.10;99.90;;;;;;5049940;28;20276;-62
2022/05/27 11:56:41;;;;;;;8.73;3.27;;;22.10;99.90;;;;;;5039545;28;20192;-62
2022/05/27 11:59:19;;;;;;;13.77;3.70;;;22.00;99.90;;;;;;5049107;28;20636;-62
2022/05/27 12:01:53;;;;;;;6.03;3.07;;;21.60;99.90;;;;;;5054694;28;20229;-62
2022/05/27 12:04:31;;;;;;;5.47;3.17;;;21.30;99.90;;;;;;5050931;28;20211;-61
2022/05/27 12:07:13;;;;;;;9.77;3.17;;;21.00;99.90;;;;;;5051962;28;20263;-62
2022/05/27 12:09:48;;;;;;;8.37;3.00;;;21.20;99.90;;;;;;5041060;28;20205;-62
2022/05/27 12:12:24;;;;;;;8.10;3.40;;;21.00;99.90;;;;;;5055986;28;20200;-61
2022/05/27 12:14:57;;;;;;;4.90;2.97;;;20.80;99.90;;;;;;5050987;28;20177;-62
2022/05/27 12:17:37;;;;;;;7.80;2.70;;;20.70;99.90;;;;;;5049894;28;20202;-62
2022/05/27 12:20:09;;;;;;;6.00;2.90;;;20.50;99.90;;;;;;5051048;28;20224;-61
2022/05/27 12:22:40;;;;;;;8.33;3.00;;;20.50;99.90;;;;;;5051420;28;20204;-62
2022/05/27 12:25:14;;;;;;;5.10;2.70;;;20.80;99.90;;;;;;5050769;28;20304;-61
2022/05/27 12:27:44;;;;;;;4.90;2.57;;;20.60;99.90;;;;;;5050525;28;20215;-62
2022/05/27 12:30:15;;;;;;;4.60;2.40;;;20.50;99.90;;;;;;5049952;28;20279;-66
2022/05/27 12:33:04;;;;;;;5.70;2.50;;;20.70;99.90;;;;;;5052946;28;20613;-65
2022/05/27 12:35:49;;;;;;;7.37;2.60;;;21.10;99.90;;;;;;5085740;28;20225;-62
2022/05/27 12:38:24;;;;;;;4.73;2.53;;;21.20;99.90;;;;;;5047658;28;20201;-62
2022/05/27 12:40:54;;;;;;;3.83;2.27;;;21.10;99.90;;;;;;5049693;28;20203;-63
2022/05/27 12:43:30;;;;;;;6.50;2.67;;;21.10;99.90;;;;;;5044978;28;20380;-64
2022/05/27 12:46:23;;;;;;;4.83;2.83;;;21.00;99.90;;;;;;5046366;28;20224;-62
2022/05/27 12:48:55;;;;;;;9.30;3.50;;;20.80;99.90;;;;;;5045354;28;20224;-62
2022/05/27 12:51:45;;;;;;;10.13;3.70;;;20.70;99.90;;;;;;5050285;28;20193;-61
2022/05/27 12:54:53;;;;;;;13.33;4.10;;;20.80;99.90;;;;;;5048969;28;20200;-62
2022/05/27 13:00:59;;;;;;;11.63;3.40;;;20.90;99.90;;;;;;5050110;28;20231;-61
2022/05/27 13:03:49;;;;;;;18.03;4.30;;;20.70;99.90;;;;;;5078550;28;20211;-61
2022/05/27 13:06:50;;;;;;;12.10;3.77;;;20.50;99.90;;;;;;5049862;28;20262;-62
2022/05/27 13:09:46;;;;;;;9.50;3.80;;;20.50;99.90;;;;;;5048070;28;20275;-62
2022/05/27 13:12:50;;;;;;;9.63;3.23;;;20.70;99.90;;;;;;5048789;28;20213;-62
2022/05/27 13:15:31;;;;;;;9.83;3.97;;;20.80;99.90;;;;;;5047761;28;20695;-62
2022/05/27 13:18:12;;;;;;;10.57;3.87;;;21.10;99.90;;;;;;5046673;28;20212;-62
2022/05/27 13:20:52;;;;;;;11.93;4.27;;;21.00;99.90;;;;;;5049335;28;20196;-61
2022/05/27 13:23:24;;;;;;;10.43;3.93;;;21.10;99.90;;;;;;5038435;28;20201;-62
2022/05/27 13:26:06;;;;;;;11.20;3.67;;;20.80;99.90;;;;;;5048826;28;20223;-62
2022/05/27 13:28:40;;;;;;;9.43;3.23;;;20.80;99.90;;;;;;5075796;28;20197;-62
2022/05/27 13:31:13;;;;;;;12.53;3.13;;;21.00;99.90;;;;;;5050128;28;20215;-62
2022/05/27 13:33:49;;;;;;;8.90;3.20;;;21.10;99.90;;;;;;5072805;28;20215;-62
2022/05/27 13:36:21;;;;;;;8.30;3.70;;;20.90;99.90;;;;;;5044360;28;20254;-62
2022/05/27 13:38:56;;;;;;;12.40;3.07;;;21.10;99.90;;;;;;5060314;28;20204;-62
2022/05/27 13:41:27;;;;;;;7.03;3.43;;;21.30;99.90;;;;;;5048735;28;20371;-62
2022/05/27 13:43:58;;;;;;;5.50;2.83;;;21.50;99.90;;;;;;5037894;28;20208;-59
2022/05/27 13:46:30;;;;;;;6.50;2.53;;;21.40;99.90;;;;;;5051775;28;20767;-62
2022/05/27 13:49:02;;;;;;;7.03;2.80;;;21.30;99.90;;;;;;5045521;28;20192;-62
2022/05/27 13:51:30;;;;;;;7.57;2.40;;;21.20;99.90;;;;;;5046046;28;20653;-62
2022/05/27 13:54:13;;;;;;;5.63;2.77;;;21.30;99.90;;;;;;5048378;28;20197;-62